Tuesday, January 23, 2018, 6:59 PM EST
Back to Local

KFIG, Clearfield-lawrence Airport

Location: Clearfield, PA, United States Lat: 41.05
Local Time: 6:59 PM EST (23:59 GMT) Lon: -78.417
Time Zone: US/Eastern Elev: 1515 ft

Show me the last for .
Show Decoded

2018-01-23 18:44 METAR KFIG 232344Z AUTO 24010G16KT 10SM BKN028 OVC034 03/M02 A2974 RMK AO2 PK
                 WND 23030/2255 RAB2258E11SNB11E12 P0000 T00281017 =
2018-01-23 18:35 METAR KFIG 232335Z AUTO 24012G21KT 10SM BKN030 OVC036 03/M02 A2974 RMK AO2 PK
                 WND 23030/2255 RAB2258E11SNB11E12 P0000 T00281017 =
2018-01-23 18:03 METAR KFIG 232303Z AUTO 24015G30KT 10SM -RA BKN029 OVC037 03/M02 A2972 RMK AO2
                 PK WND 23030/2255 RAB2258 P0000 T00331017 =
2018-01-23 17:54 METAR KFIG 232254Z AUTO 23011G22KT 10SM OVC031 03/M02 A2972 RMK AO2 SLP071
                 T00331017 =
2018-01-23 16:54 METAR KFIG 232154Z AUTO 24013G23KT 10SM FEW032 FEW047 OVC060 04/M02 A2969 RMK
                 AO2 PK WND 24026/2112 RAE05 SLP062 P0000 T00391017 =
2018-01-23 15:54 METAR KFIG 232054Z AUTO 24011G18KT 10SM -RA BKN046 OVC055 04/M01 A2967 RMK AO2
                 RAE00B53 SLP055 P0000 60000 T00391006 51026 =
2018-01-23 15:12 METAR KFIG 232012Z AUTO 24013G19KT 10SM FEW020 SCT030 OVC043 03/01 A2966 RMK AO2
                 RAE00 P0000 T00330006 =
2018-01-23 14:54 METAR KFIG 231954Z AUTO 23014KT 10SM -RA FEW020 BKN028 OVC042 03/01 A2966 RMK
                 AO2 PK WND 27028/1858 RAB1856 SLP050 P0000 T00330011 =
2018-01-23 13:54 METAR KFIG 231854Z AUTO 26013G23KT 10SM FEW021 BKN045 OVC100 04/02 A2963 RMK AO2
                 PK WND 24028/1809 RAB14E48 SLP039 P0000 T00440017 =
2018-01-23 12:54 METAR KFIG 231754Z AUTO 25016G24KT 10SM OVC049 07/M01 A2959 RMK AO2 PK WND
                 23028/1719 SLP026 60007 T00721011 10094 20056 56013 =
2018-01-23 11:54 METAR KFIG 231654Z AUTO 22013G26KT 10SM BKN046 BKN055 BKN070 08/01 A2959 RMK AO2
                 PK WND 22026/1652 SLP026 T00830006 =
2018-01-23 10:54 METAR KFIG 231554Z AUTO 23010G26KT 10SM FEW050 BKN070 08/02 A2963 RMK AO2 PK WND
                 26026/1548 SLP037 T00780022 =
2018-01-23 09:54 METAR KFIG 231454Z AUTO 21008KT 10SM FEW004 SCT022 OVC050 07/07 A2963 RMK AO2
                 RAE25 SLP041 P0001 60007 T00720067 55001 =
2018-01-23 09:02 METAR KFIG 231402Z AUTO 26005KT 8SM -RA FEW007 BKN034 OVC041 07/06 A2962 RMK AO2
                 P0000 T00670061 =
2018-01-23 08:54 METAR KFIG 231354Z AUTO 26008KT 7SM -RA SCT007 BKN024 OVC043 07/07 A2963 RMK AO2
                 SLP039 P0005 T00670067 =
2018-01-23 08:49 METAR KFIG 231349Z AUTO 25005KT 4SM -RA BR SCT005 BKN020 OVC036 07/07 A2963 RMK
                 AO2 P0004 =
2018-01-23 08:47 METAR KFIG 231347Z AUTO 25006KT 1SM -RA BR BKN005 BKN014 OVC036 07/07 A2963 RMK
                 AO2 P0004 T00720067 =
2018-01-23 08:34 METAR KFIG 231334Z AUTO 25005KT 1/4SM -RA FG BKN007 OVC014 07/07 A2962 RMK AO2
                 P0004 T00720072 =
2018-01-23 08:30 METAR KFIG 231330Z AUTO 21004KT 1/2SM -RA FG SCT005 SCT009 OVC014 07/07 A2962
                 RMK AO2 P0004 T00720072 =
2018-01-23 08:20 METAR KFIG 231320Z AUTO 23004KT 1/4SM -RA FG SCT005 BKN011 OVC021 06/06 A2961
                 RMK AO2 P0003 T00610061 =
2018-01-23 08:16 METAR KFIG 231316Z AUTO 23004KT 1/4SM -RA FG SCT010 OVC021 06/06 A2962 RMK AO2
                 P0003 T00560056 =
2018-01-23 08:07 METAR KFIG 231307Z AUTO 00000KT 1/4SM -RA FG SCT010 OVC037 07/07 A2959 RMK AO2
                 PRESFR P0002 T00670067 =
2018-01-23 07:54 METAR KFIG 231254Z AUTO 20003KT 1/4SM -RA FG BKN010 BKN022 OVC048 07/07 A2962
                 RMK AO2 RAE31B48 SLP036 P0001 T00670067 =
2018-01-23 07:50 METAR KFIG 231250Z AUTO 20003KT 1/4SM -RA FG FEW002 BKN011 OVC022 07/07 A2962
                 RMK AO2 RAE31B48 P0001 =
2018-01-23 07:40 METAR KFIG 231240Z AUTO 00000KT 1 3/4SM BR FEW004 BKN011 OVC050 07/07 A2961 RMK
                 AO2 VIS 1V4 RAE31 P0001 T00720072 =
2018-01-23 07:28 METAR KFIG 231228Z AUTO 00000KT 3SM -RA BR FEW004 BKN010 OVC048 07/07 A2961 RMK
                 AO2 P0001 T00720072 =
2018-01-23 07:23 METAR KFIG 231223Z AUTO 00000KT 1 1/4SM -RA BR FEW004 SCT012 OVC050 07/06 A2961
                 RMK AO2 P0001 T00670061 =
2018-01-23 07:08 METAR KFIG 231208Z AUTO 00000KT 1 1/4SM -RA BR FEW011 OVC050 07/07 A2962 RMK AO2
                 VIS 3/4V4 P0000 T00670067 =
2018-01-23 07:01 METAR KFIG 231201Z AUTO 00000KT 2SM -RA BR FEW008 SCT024 OVC050 07/07 A2963 RMK
                 AO2 VIS 3/4V5 P0000 T00720072 =
2018-01-23 06:54 METAR KFIG 231154Z AUTO 00000KT 5SM -RA BR FEW013 FEW029 OVC049 07/07 A2964 RMK
                 AO2 SLP040 P0004 60005 70019 T00720072 10089 20061 51007 =
2018-01-23 05:54 METAR KFIG 231054Z AUTO 18003KT 10SM -RA BKN045 OVC060 07/07 A2963 RMK AO2
                 RAE12B36 SLP036 P0001 T00720067 =
2018-01-23 05:05 METAR KFIG 231005Z AUTO 27006KT 10SM -RA SCT025 BKN037 OVC055 08/07 A2964 RMK
                 AO2 P0000 T00830067 =
2018-01-23 04:54 METAR KFIG 230954Z AUTO 22007KT 10SM -RA BKN025 OVC035 08/07 A2965 RMK AO2 RAB36
                 SLP043 P0000 T00830067 =
2018-01-23 03:54 METAR KFIG 230854Z AUTO 10005KT 10SM SCT065 07/06 A2961 RMK AO2 SLP031 60000
                 T00720061 58040 =
2018-01-23 02:54 METAR KFIG 230754Z AUTO 02005KT 9SM CLR 06/06 A2967 RMK AO2 SLP050 T00610061 =
2018-01-23 01:54 METAR KFIG 230654Z AUTO 00000KT 10SM BKN065 OVC085 08/07 A2971 RMK AO2 RAE08
                 SLP063 P0000 T00830067 =
2018-01-23 00:54 METAR KFIG 230554Z AUTO 35005KT 7SM -RA BKN045 OVC070 07/06 A2974 RMK AO2 SLP075
                 P0004 60009 T00670061 10089 20050 58032 =
2018-01-23 00:14 METAR KFIG 230514Z AUTO 00000KT 6SM -RA BR BKN047 OVC060 07/07 A2976 RMK AO2
                 P0002 T00670067 =
2018-01-23 00:07 METAR KFIG 230507Z AUTO 00000KT 2SM -RA BR SCT050 OVC060 06/06 A2977 RMK AO2
                 P0001 T00610061 =
2018-01-23 00:01 METAR KFIG 230501Z AUTO 34005KT 1/2SM -RA FG SCT050 OVC060 06/05 A2978 RMK AO2
                 P0000 T00560050 =
2018-01-22 23:54 METAR KFIG 230454Z AUTO 34006KT 1SM -RA BR OVC060 06/05 A2978 RMK AO2 SLP090
                 P0005 T00560050 401110028 =
2018-01-22 22:54 METAR KFIG 230354Z AUTO 35003KT 10SM -RA SCT075 OVC110 07/06 A2981 RMK AO2 RAB54
                 SLP102 P0000 T00720056 =
2018-01-22 21:54 METAR KFIG 230254Z AUTO 01006KT 5SM BR FEW120 06/06 A2984 RMK AO2 SLP111
                 T00610056 58020 =
2018-01-22 20:54 METAR KFIG 230154Z AUTO 04007KT 10SM CLR 07/06 A2986 RMK AO2 SLP119 T00670061 =
2018-01-22 19:54 METAR KFIG 230054Z AUTO 04007KT 10SM FEW070 07/07 A2988 RMK AO2 SLP127 T00720067
                 =

Support USWX by starting your Amazon purchase here.